sensor_id;sensor_type;location;lat;lon;timestamp;P1;durP1;ratioP1;P2;durP2;ratioP2
25435;SDS011;13363;52.772;-3.890;2023-03-01T00:01:31;0.97;;;0.97;;
25435;SDS011;13363;52.772;-3.890;2023-03-01T00:03:57;2.03;;;1.27;;
25435;SDS011;13363;52.772;-3.890;2023-03-01T00:06:24;1.93;;;1.50;;
25435;SDS011;13363;52.772;-3.890;2023-03-01T00:08:51;1.60;;;1.50;;
25435;SDS011;13363;52.772;-3.890;2023-03-01T00:11:24;1.60;;;1.50;;
25435;SDS011;13363;52.772;-3.890;2023-03-01T00:13:52;1.50;;;1.50;;
25435;SDS011;13363;52.772;-3.890;2023-03-01T00:16:24;1.10;;;1.10;;
25435;SDS011;13363;52.772;-3.890;2023-03-01T00:18:51;1.10;;;1.10;;
25435;SDS011;13363;52.772;-3.890;2023-03-01T00:21:22;1.30;;;1.20;;
25435;SDS011;13363;52.772;-3.890;2023-03-01T00:23:48;3.63;;;1.10;;
25435;SDS011;13363;52.772;-3.890;2023-03-01T00:26:15;1.10;;;1.10;;
25435;SDS011;13363;52.772;-3.890;2023-03-01T00:28:42;0.90;;;0.90;;
25435;SDS011;13363;52.772;-3.890;2023-03-01T00:31:10;0.93;;;0.90;;
25435;SDS011;13363;52.772;-3.890;2023-03-01T00:33:46;1.10;;;1.00;;
25435;SDS011;13363;52.772;-3.890;2023-03-01T00:36:13;1.43;;;1.40;;
25435;SDS011;13363;52.772;-3.890;2023-03-01T00:38:40;1.07;;;1.07;;
25435;SDS011;13363;52.772;-3.890;2023-03-01T00:41:10;1.27;;;1.27;;
25435;SDS011;13363;52.772;-3.890;2023-03-01T00:43:40;1.23;;;1.13;;
25435;SDS011;13363;52.772;-3.890;2023-03-01T00:46:11;1.00;;;1.00;;
25435;SDS011;13363;52.772;-3.890;2023-03-01T00:48:41;1.37;;;1.20;;
25435;SDS011;13363;52.772;-3.890;2023-03-01T00:51:08;1.83;;;1.20;;
25435;SDS011;13363;52.772;-3.890;2023-03-01T00:53:34;1.10;;;1.10;;
25435;SDS011;13363;52.772;-3.890;2023-03-01T00:56:00;1.00;;;1.00;;
25435;SDS011;13363;52.772;-3.890;2023-03-01T00:58:27;1.13;;;0.97;;
25435;SDS011;13363;52.772;-3.890;2023-03-01T01:00:52;1.10;;;1.10;;
25435;SDS011;13363;52.772;-3.890;2023-03-01T01:03:18;0.90;;;0.90;;
25435;SDS011;13363;52.772;-3.890;2023-03-01T01:05:45;1.00;;;1.00;;
25435;SDS011;13363;52.772;-3.890;2023-03-01T01:08:10;1.90;;;1.70;;
25435;SDS011;13363;52.772;-3.890;2023-03-01T01:10:36;1.67;;;1.37;;
25435;SDS011;13363;52.772;-3.890;2023-03-01T01:13:03;1.90;;;1.80;;
25435;SDS011;13363;52.772;-3.890;2023-03-01T01:15:29;2.20;;;2.10;;
25435;SDS011;13363;52.772;-3.890;2023-03-01T01:17:58;2.47;;;1.90;;
25435;SDS011;13363;52.772;-3.890;2023-03-01T01:20:24;1.43;;;1.33;;
25435;SDS011;13363;52.772;-3.890;2023-03-01T01:22:50;1.60;;;1.50;;
25435;SDS011;13363;52.772;-3.890;2023-03-01T01:25:16;1.47;;;1.47;;
25435;SDS011;13363;52.772;-3.890;2023-03-01T01:27:42;1.10;;;1.10;;
25435;SDS011;13363;52.772;-3.890;2023-03-01T01:30:08;1.00;;;1.00;;
25435;SDS011;13363;52.772;-3.890;2023-03-01T01:32:34;1.40;;;1.40;;
25435;SDS011;13363;52.772;-3.890;2023-03-01T01:35:00;1.30;;;1.30;;
25435;SDS011;13363;52.772;-3.890;2023-03-01T01:37:26;1.43;;;1.43;;
25435;SDS011;13363;52.772;-3.890;2023-03-01T01:39:58;1.33;;;1.30;;
25435;SDS011;13363;52.772;-3.890;2023-03-01T01:42:25;1.37;;;1.20;;
25435;SDS011;13363;52.772;-3.890;2023-03-01T01:47:54;1.20;;;1.10;;
25435;SDS011;13363;52.772;-3.890;2023-03-01T01:50:23;1.20;;;1.20;;
25435;SDS011;13363;52.772;-3.890;2023-03-01T01:52:50;0.90;;;0.90;;
25435;SDS011;13363;52.772;-3.890;2023-03-01T01:55:19;1.60;;;1.13;;
25435;SDS011;13363;52.772;-3.890;2023-03-01T01:57:53;0.90;;;0.90;;
25435;SDS011;13363;52.772;-3.890;2023-03-01T02:00:24;1.00;;;1.00;;
25435;SDS011;13363;52.772;-3.890;2023-03-01T02:03:03;0.80;;;0.80;;
25435;SDS011;13363;52.772;-3.890;2023-03-01T02:08:03;1.13;;;0.97;;
25435;SDS011;13363;52.772;-3.890;2023-03-01T02:10:29;1.37;;;0.73;;
25435;SDS011;13363;52.772;-3.890;2023-03-01T02:12:58;0.80;;;0.80;;
25435;SDS011;13363;52.772;-3.890;2023-03-01T02:15:25;0.97;;;0.70;;
25435;SDS011;13363;52.772;-3.890;2023-03-01T02:17:52;0.57;;;0.57;;
25435;SDS011;13363;52.772;-3.890;2023-03-01T02:22:50;1.20;;;1.10;;
25435;SDS011;13363;52.772;-3.890;2023-03-01T02:30:43;1.13;;;1.10;;
25435;SDS011;13363;52.772;-3.890;2023-03-01T02:33:29;0.90;;;0.90;;
25435;SDS011;13363;52.772;-3.890;2023-03-01T02:36:08;1.47;;;0.93;;
25435;SDS011;13363;52.772;-3.890;2023-03-01T02:38:38;0.60;;;0.60;;
25435;SDS011;13363;52.772;-3.890;2023-03-01T02:41:08;0.83;;;0.83;;
25435;SDS011;13363;52.772;-3.890;2023-03-01T02:43:36;0.77;;;0.77;;
25435;SDS011;13363;52.772;-3.890;2023-03-01T02:46:05;0.73;;;0.73;;
25435;SDS011;13363;52.772;-3.890;2023-03-01T02:48:43;0.97;;;0.97;;
25435;SDS011;13363;52.772;-3.890;2023-03-01T02:53:53;1.13;;;1.03;;
25435;SDS011;13363;52.772;-3.890;2023-03-01T02:56:22;0.60;;;0.60;;
25435;SDS011;13363;52.772;-3.890;2023-03-01T02:58:47;0.77;;;0.77;;
25435;SDS011;13363;52.772;-3.890;2023-03-01T03:01:17;0.83;;;0.83;;
25435;SDS011;13363;52.772;-3.890;2023-03-01T03:03:44;0.80;;;0.80;;
25435;SDS011;13363;52.772;-3.890;2023-03-01T03:06:10;0.97;;;0.97;;
25435;SDS011;13363;52.772;-3.890;2023-03-01T03:08:35;1.17;;;0.90;;
25435;SDS011;13363;52.772;-3.890;2023-03-01T03:11:01;0.70;;;0.70;;
25435;SDS011;13363;52.772;-3.890;2023-03-01T03:13:28;0.90;;;0.90;;
25435;SDS011;13363;52.772;-3.890;2023-03-01T03:15:54;1.00;;;0.70;;
25435;SDS011;13363;52.772;-3.890;2023-03-01T03:18:21;0.80;;;0.80;;
25435;SDS011;13363;52.772;-3.890;2023-03-01T03:20:50;1.20;;;1.20;;
25435;SDS011;13363;52.772;-3.890;2023-03-01T03:23:18;1.17;;;1.10;;
25435;SDS011;13363;52.772;-3.890;2023-03-01T03:25:47;1.33;;;1.00;;
25435;SDS011;13363;52.772;-3.890;2023-03-01T03:28:14;1.00;;;1.00;;
25435;SDS011;13363;52.772;-3.890;2023-03-01T03:30:41;1.17;;;1.07;;
25435;SDS011;13363;52.772;-3.890;2023-03-01T03:33:08;1.20;;;1.20;;
25435;SDS011;13363;52.772;-3.890;2023-03-01T03:35:38;1.10;;;1.10;;
25435;SDS011;13363;52.772;-3.890;2023-03-01T03:38:10;1.20;;;1.20;;
25435;SDS011;13363;52.772;-3.890;2023-03-01T03:40:47;1.30;;;1.30;;
25435;SDS011;13363;52.772;-3.890;2023-03-01T03:43:16;1.63;;;1.07;;
25435;SDS011;13363;52.772;-3.890;2023-03-01T03:45:46;1.10;;;1.10;;
25435;SDS011;13363;52.772;-3.890;2023-03-01T03:48:13;1.30;;;1.20;;
25435;SDS011;13363;52.772;-3.890;2023-03-01T03:50:39;1.20;;;1.20;;
25435;SDS011;13363;52.772;-3.890;2023-03-01T03:53:07;1.07;;;1.00;;
25435;SDS011;13363;52.772;-3.890;2023-03-01T03:55:34;1.03;;;0.90;;
25435;SDS011;13363;52.772;-3.890;2023-03-01T03:58:04;0.90;;;0.90;;
25435;SDS011;13363;52.772;-3.890;2023-03-01T04:00:32;0.80;;;0.80;;
25435;SDS011;13363;52.772;-3.890;2023-03-01T04:02:59;0.87;;;0.87;;
25435;SDS011;13363;52.772;-3.890;2023-03-01T04:05:25;0.77;;;0.77;;
25435;SDS011;13363;52.772;-3.890;2023-03-01T04:07:52;0.70;;;0.70;;
25435;SDS011;13363;52.772;-3.890;2023-03-01T04:10:26;0.73;;;0.73;;
25435;SDS011;13363;52.772;-3.890;2023-03-01T04:12:57;0.90;;;0.90;;
25435;SDS011;13363;52.772;-3.890;2023-03-01T04:15:26;1.00;;;1.00;;
25435;SDS011;13363;52.772;-3.890;2023-03-01T04:17:52;0.80;;;0.80;;
25435;SDS011;13363;52.772;-3.890;2023-03-01T04:20:23;0.90;;;0.90;;
25435;SDS011;13363;52.772;-3.890;2023-03-01T04:22:52;0.60;;;0.60;;
25435;SDS011;13363;52.772;-3.890;2023-03-01T04:25:25;0.60;;;0.60;;
25435;SDS011;13363;52.772;-3.890;2023-03-01T04:27:51;1.00;;;1.00;;
25435;SDS011;13363;52.772;-3.890;2023-03-01T04:30:19;1.10;;;1.10;;
25435;SDS011;13363;52.772;-3.890;2023-03-01T04:32:45;1.00;;;1.00;;
25435;SDS011;13363;52.772;-3.890;2023-03-01T04:35:11;1.00;;;1.00;;
25435;SDS011;13363;52.772;-3.890;2023-03-01T04:37:37;1.10;;;1.10;;
25435;SDS011;13363;52.772;-3.890;2023-03-01T04:40:03;1.63;;;1.20;;
25435;SDS011;13363;52.772;-3.890;2023-03-01T04:42:40;1.00;;;1.00;;
25435;SDS011;13363;52.772;-3.890;2023-03-01T04:45:07;1.00;;;1.00;;
25435;SDS011;13363;52.772;-3.890;2023-03-01T04:47:41;1.20;;;1.10;;
25435;SDS011;13363;52.772;-3.890;2023-03-01T04:50:09;1.50;;;1.40;;
25435;SDS011;13363;52.772;-3.890;2023-03-01T04:52:37;2.70;;;1.13;;
25435;SDS011;13363;52.772;-3.890;2023-03-01T04:55:03;1.17;;;1.17;;
25435;SDS011;13363;52.772;-3.890;2023-03-01T04:57:29;1.30;;;1.30;;
25435;SDS011;13363;52.772;-3.890;2023-03-01T04:59:55;2.53;;;0.93;;
25435;SDS011;13363;52.772;-3.890;2023-03-01T05:02:21;1.13;;;1.13;;
25435;SDS011;13363;52.772;-3.890;2023-03-01T05:04:47;0.87;;;0.87;;
25435;SDS011;13363;52.772;-3.890;2023-03-01T05:07:13;1.90;;;1.40;;
25435;SDS011;13363;52.772;-3.890;2023-03-01T05:09:44;2.63;;;1.80;;
25435;SDS011;13363;52.772;-3.890;2023-03-01T05:12:11;1.30;;;1.20;;
25435;SDS011;13363;52.772;-3.890;2023-03-01T05:14:37;1.53;;;1.50;;
25435;SDS011;13363;52.772;-3.890;2023-03-01T05:17:04;1.40;;;1.40;;
25435;SDS011;13363;52.772;-3.890;2023-03-01T05:19:30;1.43;;;1.43;;
25435;SDS011;13363;52.772;-3.890;2023-03-01T05:21:57;1.33;;;1.30;;
25435;SDS011;13363;52.772;-3.890;2023-03-01T05:24:30;1.63;;;1.63;;
25435;SDS011;13363;52.772;-3.890;2023-03-01T05:26:58;1.53;;;1.43;;
25435;SDS011;13363;52.772;-3.890;2023-03-01T05:29:24;1.60;;;1.60;;
25435;SDS011;13363;52.772;-3.890;2023-03-01T05:31:55;2.00;;;1.90;;
25435;SDS011;13363;52.772;-3.890;2023-03-01T05:34:23;2.03;;;1.93;;
25435;SDS011;13363;52.772;-3.890;2023-03-01T05:36:50;2.10;;;2.00;;
25435;SDS011;13363;52.772;-3.890;2023-03-01T05:39:21;1.80;;;1.80;;
25435;SDS011;13363;52.772;-3.890;2023-03-01T05:41:51;2.20;;;2.00;;
25435;SDS011;13363;52.772;-3.890;2023-03-01T05:44:18;1.90;;;1.67;;
25435;SDS011;13363;52.772;-3.890;2023-03-01T05:46:43;1.80;;;1.70;;
25435;SDS011;13363;52.772;-3.890;2023-03-01T05:49:10;1.50;;;1.50;;
25435;SDS011;13363;52.772;-3.890;2023-03-01T05:51:38;1.70;;;1.60;;
25435;SDS011;13363;52.772;-3.890;2023-03-01T05:54:07;1.80;;;1.70;;
25435;SDS011;13363;52.772;-3.890;2023-03-01T05:56:34;2.10;;;1.53;;
25435;SDS011;13363;52.772;-3.890;2023-03-01T05:59:01;1.43;;;1.43;;
25435;SDS011;13363;52.772;-3.890;2023-03-01T06:01:30;1.37;;;1.37;;
25435;SDS011;13363;52.772;-3.890;2023-03-01T06:03:56;1.40;;;1.30;;
25435;SDS011;13363;52.772;-3.890;2023-03-01T06:06:22;1.67;;;1.57;;
25435;SDS011;13363;52.772;-3.890;2023-03-01T06:08:49;1.77;;;1.67;;
25435;SDS011;13363;52.772;-3.890;2023-03-01T06:11:15;1.30;;;1.30;;
25435;SDS011;13363;52.772;-3.890;2023-03-01T06:13:42;2.00;;;1.50;;
25435;SDS011;13363;52.772;-3.890;2023-03-01T06:16:08;1.30;;;1.30;;
25435;SDS011;13363;52.772;-3.890;2023-03-01T06:18:35;1.50;;;1.50;;
25435;SDS011;13363;52.772;-3.890;2023-03-01T06:21:02;1.47;;;1.23;;
25435;SDS011;13363;52.772;-3.890;2023-03-01T06:23:28;1.43;;;1.40;;
25435;SDS011;13363;52.772;-3.890;2023-03-01T06:25:54;1.20;;;1.20;;
25435;SDS011;13363;52.772;-3.890;2023-03-01T06:28:19;2.23;;;1.50;;
25435;SDS011;13363;52.772;-3.890;2023-03-01T06:30:45;1.07;;;1.07;;
25435;SDS011;13363;52.772;-3.890;2023-03-01T06:33:11;2.53;;;1.70;;
25435;SDS011;13363;52.772;-3.890;2023-03-01T06:35:38;1.47;;;1.13;;
25435;SDS011;13363;52.772;-3.890;2023-03-01T06:38:04;1.80;;;1.30;;
25435;SDS011;13363;52.772;-3.890;2023-03-01T06:40:31;1.00;;;1.00;;
25435;SDS011;13363;52.772;-3.890;2023-03-01T06:42:57;1.23;;;1.00;;
25435;SDS011;13363;52.772;-3.890;2023-03-01T06:45:24;0.93;;;0.93;;
25435;SDS011;13363;52.772;-3.890;2023-03-01T06:47:50;1.00;;;1.00;;
25435;SDS011;13363;52.772;-3.890;2023-03-01T06:50:16;2.20;;;1.20;;
25435;SDS011;13363;52.772;-3.890;2023-03-01T06:52:43;1.27;;;1.20;;
25435;SDS011;13363;52.772;-3.890;2023-03-01T06:55:10;1.30;;;1.20;;
25435;SDS011;13363;52.772;-3.890;2023-03-01T06:57:37;1.63;;;1.53;;
25435;SDS011;13363;52.772;-3.890;2023-03-01T07:00:03;1.63;;;1.30;;
25435;SDS011;13363;52.772;-3.890;2023-03-01T07:02:30;1.37;;;1.00;;
25435;SDS011;13363;52.772;-3.890;2023-03-01T07:04:56;1.40;;;1.40;;
25435;SDS011;13363;52.772;-3.890;2023-03-01T07:07:22;0.93;;;0.93;;
25435;SDS011;13363;52.772;-3.890;2023-03-01T07:09:48;0.93;;;0.93;;
25435;SDS011;13363;52.772;-3.890;2023-03-01T07:12:14;1.67;;;1.00;;
25435;SDS011;13363;52.772;-3.890;2023-03-01T07:14:40;1.33;;;1.00;;
25435;SDS011;13363;52.772;-3.890;2023-03-01T07:17:06;1.07;;;0.93;;
25435;SDS011;13363;52.772;-3.890;2023-03-01T07:19:32;1.10;;;1.10;;
25435;SDS011;13363;52.772;-3.890;2023-03-01T07:21:58;1.77;;;1.10;;
25435;SDS011;13363;52.772;-3.890;2023-03-01T07:24:24;1.50;;;1.50;;
25435;SDS011;13363;52.772;-3.890;2023-03-01T07:26:50;1.17;;;1.13;;
25435;SDS011;13363;52.772;-3.890;2023-03-01T07:29:17;1.30;;;1.10;;
25435;SDS011;13363;52.772;-3.890;2023-03-01T07:31:43;1.70;;;1.60;;
25435;SDS011;13363;52.772;-3.890;2023-03-01T07:34:09;2.07;;;1.97;;
25435;SDS011;13363;52.772;-3.890;2023-03-01T07:36:36;2.60;;;1.57;;
25435;SDS011;13363;52.772;-3.890;2023-03-01T07:39:02;1.53;;;1.50;;
25435;SDS011;13363;52.772;-3.890;2023-03-01T07:41:29;1.40;;;1.30;;
25435;SDS011;13363;52.772;-3.890;2023-03-01T07:43:55;2.00;;;1.10;;
25435;SDS011;13363;52.772;-3.890;2023-03-01T07:46:21;1.30;;;1.30;;
25435;SDS011;13363;52.772;-3.890;2023-03-01T07:48:47;3.17;;;1.20;;
25435;SDS011;13363;52.772;-3.890;2023-03-01T07:51:13;1.40;;;1.40;;
25435;SDS011;13363;52.772;-3.890;2023-03-01T07:53:39;1.60;;;1.07;;
25435;SDS011;13363;52.772;-3.890;2023-03-01T07:56:06;1.40;;;1.30;;
25435;SDS011;13363;52.772;-3.890;2023-03-01T07:58:33;1.00;;;1.00;;
25435;SDS011;13363;52.772;-3.890;2023-03-01T08:01:01;1.40;;;1.30;;
25435;SDS011;13363;52.772;-3.890;2023-03-01T08:03:28;1.00;;;1.00;;
25435;SDS011;13363;52.772;-3.890;2023-03-01T08:05:54;2.50;;;0.90;;
25435;SDS011;13363;52.772;-3.890;2023-03-01T08:08:20;0.80;;;0.80;;
25435;SDS011;13363;52.772;-3.890;2023-03-01T08:10:45;0.90;;;0.90;;
25435;SDS011;13363;52.772;-3.890;2023-03-01T08:13:11;1.13;;;0.80;;
25435;SDS011;13363;52.772;-3.890;2023-03-01T08:15:37;0.70;;;0.70;;
25435;SDS011;13363;52.772;-3.890;2023-03-01T08:18:03;0.80;;;0.80;;
25435;SDS011;13363;52.772;-3.890;2023-03-01T08:20:29;1.03;;;0.67;;
25435;SDS011;13363;52.772;-3.890;2023-03-01T08:22:54;0.60;;;0.60;;
25435;SDS011;13363;52.772;-3.890;2023-03-01T08:25:22;1.63;;;0.90;;
25435;SDS011;13363;52.772;-3.890;2023-03-01T08:27:48;1.17;;;0.93;;
25435;SDS011;13363;52.772;-3.890;2023-03-01T08:30:14;0.90;;;0.90;;
25435;SDS011;13363;52.772;-3.890;2023-03-01T08:32:40;1.33;;;0.90;;
25435;SDS011;13363;52.772;-3.890;2023-03-01T08:35:06;2.50;;;1.30;;
25435;SDS011;13363;52.772;-3.890;2023-03-01T08:37:33;1.47;;;1.40;;
25435;SDS011;13363;52.772;-3.890;2023-03-01T08:39:59;1.93;;;1.33;;
25435;SDS011;13363;52.772;-3.890;2023-03-01T08:42:25;1.10;;;1.10;;
25435;SDS011;13363;52.772;-3.890;2023-03-01T08:44:51;1.70;;;1.60;;
25435;SDS011;13363;52.772;-3.890;2023-03-01T08:47:17;1.17;;;1.17;;
25435;SDS011;13363;52.772;-3.890;2023-03-01T08:49:43;1.80;;;1.70;;
25435;SDS011;13363;52.772;-3.890;2023-03-01T08:52:09;1.07;;;1.00;;
25435;SDS011;13363;52.772;-3.890;2023-03-01T08:54:34;1.70;;;1.60;;
25435;SDS011;13363;52.772;-3.890;2023-03-01T08:57:01;1.73;;;1.67;;
25435;SDS011;13363;52.772;-3.890;2023-03-01T08:59:27;1.40;;;1.40;;
25435;SDS011;13363;52.772;-3.890;2023-03-01T09:01:54;1.40;;;1.40;;
25435;SDS011;13363;52.772;-3.890;2023-03-01T09:04:21;1.73;;;1.70;;
25435;SDS011;13363;52.772;-3.890;2023-03-01T09:06:47;1.43;;;1.43;;
25435;SDS011;13363;52.772;-3.890;2023-03-01T09:09:14;1.70;;;1.60;;
25435;SDS011;13363;52.772;-3.890;2023-03-01T09:11:42;1.50;;;1.50;;
25435;SDS011;13363;52.772;-3.890;2023-03-01T09:14:11;1.43;;;1.33;;
25435;SDS011;13363;52.772;-3.890;2023-03-01T09:16:40;1.30;;;1.30;;
25435;SDS011;13363;52.772;-3.890;2023-03-01T09:19:06;1.23;;;1.13;;
25435;SDS011;13363;52.772;-3.890;2023-03-01T09:21:32;1.00;;;1.00;;
25435;SDS011;13363;52.772;-3.890;2023-03-01T09:23:59;0.90;;;0.90;;
25435;SDS011;13363;52.772;-3.890;2023-03-01T09:26:25;1.10;;;1.10;;
25435;SDS011;13363;52.772;-3.890;2023-03-01T09:28:52;1.10;;;0.87;;
25435;SDS011;13363;52.772;-3.890;2023-03-01T09:31:21;0.90;;;0.90;;
25435;SDS011;13363;52.772;-3.890;2023-03-01T09:33:49;1.07;;;1.07;;
25435;SDS011;13363;52.772;-3.890;2023-03-01T09:36:18;0.73;;;0.73;;
25435;SDS011;13363;52.772;-3.890;2023-03-01T09:38:46;1.00;;;1.00;;
25435;SDS011;13363;52.772;-3.890;2023-03-01T09:43:49;2.73;;;0.83;;
25435;SDS011;13363;52.772;-3.890;2023-03-01T09:46:19;0.63;;;0.63;;
25435;SDS011;13363;52.772;-3.890;2023-03-01T09:51:59;0.90;;;0.90;;
25435;SDS011;13363;52.772;-3.890;2023-03-01T09:54:37;0.97;;;0.90;;
25435;SDS011;13363;52.772;-3.890;2023-03-01T10:05:00;1.10;;;1.10;;
25435;SDS011;13363;52.772;-3.890;2023-03-01T10:10:06;0.97;;;0.90;;
25435;SDS011;13363;52.772;-3.890;2023-03-01T10:12:35;0.90;;;0.90;;
25435;SDS011;13363;52.772;-3.890;2023-03-01T10:17:45;0.50;;;0.50;;
25435;SDS011;13363;52.772;-3.890;2023-03-01T10:20:22;0.50;;;0.50;;
25435;SDS011;13363;52.772;-3.890;2023-03-01T10:22:50;0.57;;;0.57;;
25435;SDS011;13363;52.772;-3.890;2023-03-01T10:25:23;0.83;;;0.83;;
25435;SDS011;13363;52.772;-3.890;2023-03-01T10:28:10;1.33;;;0.83;;
25435;SDS011;13363;52.772;-3.890;2023-03-01T10:30:39;1.23;;;1.23;;
25435;SDS011;13363;52.772;-3.890;2023-03-01T10:33:20;1.20;;;1.20;;
25435;SDS011;13363;52.772;-3.890;2023-03-01T10:35:47;1.20;;;0.90;;
25435;SDS011;13363;52.772;-3.890;2023-03-01T10:38:13;1.23;;;1.23;;
25435;SDS011;13363;52.772;-3.890;2023-03-01T10:40:54;2.43;;;1.20;;
25435;SDS011;13363;52.772;-3.890;2023-03-01T10:43:22;1.30;;;1.30;;
25435;SDS011;13363;52.772;-3.890;2023-03-01T10:45:55;1.60;;;1.50;;
25435;SDS011;13363;52.772;-3.890;2023-03-01T10:48:24;2.90;;;1.53;;
25435;SDS011;13363;52.772;-3.890;2023-03-01T10:53:42;0.90;;;0.90;;
25435;SDS011;13363;52.772;-3.890;2023-03-01T10:56:15;1.07;;;1.07;;
25435;SDS011;13363;52.772;-3.890;2023-03-01T10:59:00;0.80;;;0.80;;
25435;SDS011;13363;52.772;-3.890;2023-03-01T11:01:31;1.20;;;1.10;;
25435;SDS011;13363;52.772;-3.890;2023-03-01T11:04:17;1.23;;;0.80;;
25435;SDS011;13363;52.772;-3.890;2023-03-01T11:06:43;1.07;;;1.07;;
25435;SDS011;13363;52.772;-3.890;2023-03-01T11:09:22;1.30;;;1.30;;
25435;SDS011;13363;52.772;-3.890;2023-03-01T11:11:53;1.30;;;1.30;;
25435;SDS011;13363;52.772;-3.890;2023-03-01T11:14:25;1.50;;;1.40;;
25435;SDS011;13363;52.772;-3.890;2023-03-01T11:17:06;1.70;;;1.60;;
25435;SDS011;13363;52.772;-3.890;2023-03-01T11:19:37;1.70;;;1.60;;
25435;SDS011;13363;52.772;-3.890;2023-03-01T11:22:04;1.50;;;1.50;;
25435;SDS011;13363;52.772;-3.890;2023-03-01T11:24:45;1.60;;;1.50;;
25435;SDS011;13363;52.772;-3.890;2023-03-01T11:32:32;0.90;;;0.90;;
25435;SDS011;13363;52.772;-3.890;2023-03-01T11:35:09;1.20;;;1.10;;
25435;SDS011;13363;52.772;-3.890;2023-03-01T11:40:24;3.00;;;0.83;;
25435;SDS011;13363;52.772;-3.890;2023-03-01T11:51:18;1.00;;;1.00;;
25435;SDS011;13363;52.772;-3.890;2023-03-01T11:54:01;0.80;;;0.80;;
25435;SDS011;13363;52.772;-3.890;2023-03-01T11:57:10;1.00;;;1.00;;
25435;SDS011;13363;52.772;-3.890;2023-03-01T12:00:02;1.00;;;1.00;;
25435;SDS011;13363;52.772;-3.890;2023-03-01T12:08:16;1.00;;;1.00;;
25435;SDS011;13363;52.772;-3.890;2023-03-01T12:19:59;1.53;;;1.43;;
25435;SDS011;13363;52.772;-3.890;2023-03-01T12:42:24;0.53;;;0.53;;
25435;SDS011;13363;52.772;-3.890;2023-03-01T12:50:44;0.37;;;0.37;;
25435;SDS011;13363;52.772;-3.890;2023-03-01T12:53:34;0.60;;;0.60;;
25435;SDS011;13363;52.772;-3.890;2023-03-01T12:56:46;1.70;;;0.40;;
25435;SDS011;13363;52.772;-3.890;2023-03-01T13:09:44;0.73;;;0.60;;
25435;SDS011;13363;52.772;-3.890;2023-03-01T13:15:33;0.70;;;0.70;;
25435;SDS011;13363;52.772;-3.890;2023-03-01T13:18:43;1.40;;;0.60;;
25435;SDS011;13363;52.772;-3.890;2023-03-01T13:20:53;0.50;;;0.50;;
25435;SDS011;13363;52.772;-3.890;2023-03-01T13:36:11;0.80;;;0.80;;
25435;SDS011;13363;52.772;-3.890;2023-03-01T13:44:18;0.80;;;0.63;;
25435;SDS011;13363;52.772;-3.890;2023-03-01T13:46:46;0.70;;;0.60;;
25435;SDS011;13363;52.772;-3.890;2023-03-01T13:49:16;0.83;;;0.73;;
25435;SDS011;13363;52.772;-3.890;2023-03-01T13:51:46;1.57;;;0.67;;
25435;SDS011;13363;52.772;-3.890;2023-03-01T13:54:14;0.50;;;0.50;;
25435;SDS011;13363;52.772;-3.890;2023-03-01T13:56:43;2.50;;;0.50;;
25435;SDS011;13363;52.772;-3.890;2023-03-01T13:59:19;0.70;;;0.60;;
25435;SDS011;13363;52.772;-3.890;2023-03-01T14:01:53;0.40;;;0.40;;
25435;SDS011;13363;52.772;-3.890;2023-03-01T14:04:22;0.57;;;0.57;;
25435;SDS011;13363;52.772;-3.890;2023-03-01T14:09:43;0.30;;;0.30;;
25435;SDS011;13363;52.772;-3.890;2023-03-01T14:20:20;0.53;;;0.50;;
25435;SDS011;13363;52.772;-3.890;2023-03-01T14:22:52;0.57;;;0.57;;
25435;SDS011;13363;52.772;-3.890;2023-03-01T14:27:54;0.50;;;0.50;;
25435;SDS011;13363;52.772;-3.890;2023-03-01T14:30:26;0.43;;;0.40;;
25435;SDS011;13363;52.772;-3.890;2023-03-01T14:33:00;2.00;;;0.77;;
25435;SDS011;13363;52.772;-3.890;2023-03-01T14:35:37;0.50;;;0.50;;
25435;SDS011;13363;52.772;-3.890;2023-03-01T14:38:03;1.13;;;0.40;;
25435;SDS011;13363;52.772;-3.890;2023-03-01T14:42:59;0.37;;;0.37;;
25435;SDS011;13363;52.772;-3.890;2023-03-01T14:45:28;1.57;;;0.47;;
25435;SDS011;13363;52.772;-3.890;2023-03-01T14:47:55;0.60;;;0.60;;
25435;SDS011;13363;52.772;-3.890;2023-03-01T14:50:29;0.73;;;0.60;;
25435;SDS011;13363;52.772;-3.890;2023-03-01T14:53:04;0.60;;;0.60;;
25435;SDS011;13363;52.772;-3.890;2023-03-01T14:55:33;0.50;;;0.50;;
25435;SDS011;13363;52.772;-3.890;2023-03-01T14:58:02;0.63;;;0.53;;
25435;SDS011;13363;52.772;-3.890;2023-03-01T15:00:30;0.43;;;0.43;;
25435;SDS011;13363;52.772;-3.890;2023-03-01T15:03:11;0.40;;;0.40;;
25435;SDS011;13363;52.772;-3.890;2023-03-01T15:05:43;0.40;;;0.40;;
25435;SDS011;13363;52.772;-3.890;2023-03-01T15:08:19;0.40;;;0.40;;
25435;SDS011;13363;52.772;-3.890;2023-03-01T15:10:59;0.43;;;0.40;;
25435;SDS011;13363;52.772;-3.890;2023-03-01T15:13:31;0.60;;;0.60;;
25435;SDS011;13363;52.772;-3.890;2023-03-01T15:16:11;0.73;;;0.40;;
25435;SDS011;13363;52.772;-3.890;2023-03-01T15:18:43;1.23;;;0.50;;
25435;SDS011;13363;52.772;-3.890;2023-03-01T15:21:21;0.60;;;0.60;;
25435;SDS011;13363;52.772;-3.890;2023-03-01T15:23:50;0.67;;;0.50;;
25435;SDS011;13363;52.772;-3.890;2023-03-01T15:26:44;0.50;;;0.50;;
25435;SDS011;13363;52.772;-3.890;2023-03-01T15:29:19;0.53;;;0.50;;
25435;SDS011;13363;52.772;-3.890;2023-03-01T15:31:56;1.80;;;0.57;;
25435;SDS011;13363;52.772;-3.890;2023-03-01T15:37:02;0.40;;;0.40;;
25435;SDS011;13363;52.772;-3.890;2023-03-01T15:41:58;0.67;;;0.67;;
25435;SDS011;13363;52.772;-3.890;2023-03-01T15:46:52;0.80;;;0.60;;
25435;SDS011;13363;52.772;-3.890;2023-03-01T15:49:22;0.83;;;0.50;;
25435;SDS011;13363;52.772;-3.890;2023-03-01T15:52:12;1.30;;;0.50;;
25435;SDS011;13363;52.772;-3.890;2023-03-01T15:54:44;0.50;;;0.50;;
25435;SDS011;13363;52.772;-3.890;2023-03-01T15:57:14;0.40;;;0.40;;
25435;SDS011;13363;52.772;-3.890;2023-03-01T15:59:42;0.40;;;0.40;;
25435;SDS011;13363;52.772;-3.890;2023-03-01T16:02:12;0.50;;;0.50;;
25435;SDS011;13363;52.772;-3.890;2023-03-01T16:04:38;0.50;;;0.43;;
25435;SDS011;13363;52.772;-3.890;2023-03-01T16:07:05;0.50;;;0.50;;
25435;SDS011;13363;52.772;-3.890;2023-03-01T16:09:31;0.50;;;0.50;;
25435;SDS011;13363;52.772;-3.890;2023-03-01T16:11:57;1.33;;;0.70;;
25435;SDS011;13363;52.772;-3.890;2023-03-01T16:14:23;0.43;;;0.43;;
25435;SDS011;13363;52.772;-3.890;2023-03-01T16:16:49;1.30;;;0.60;;
25435;SDS011;13363;52.772;-3.890;2023-03-01T16:19:15;1.33;;;0.80;;
25435;SDS011;13363;52.772;-3.890;2023-03-01T16:21:41;0.63;;;0.63;;
25435;SDS011;13363;52.772;-3.890;2023-03-01T16:24:08;0.57;;;0.57;;
25435;SDS011;13363;52.772;-3.890;2023-03-01T16:26:36;0.97;;;0.50;;
25435;SDS011;13363;52.772;-3.890;2023-03-01T16:29:02;2.93;;;0.70;;
25435;SDS011;13363;52.772;-3.890;2023-03-01T16:31:28;1.10;;;0.70;;
25435;SDS011;13363;52.772;-3.890;2023-03-01T16:33:55;0.60;;;0.60;;
25435;SDS011;13363;52.772;-3.890;2023-03-01T16:36:23;0.97;;;0.80;;
25435;SDS011;13363;52.772;-3.890;2023-03-01T16:38:51;1.00;;;0.80;;
25435;SDS011;13363;52.772;-3.890;2023-03-01T16:41:18;1.37;;;0.70;;
25435;SDS011;13363;52.772;-3.890;2023-03-01T16:43:46;1.33;;;0.53;;
25435;SDS011;13363;52.772;-3.890;2023-03-01T16:46:13;0.97;;;0.77;;
25435;SDS011;13363;52.772;-3.890;2023-03-01T16:48:42;2.30;;;0.97;;
25435;SDS011;13363;52.772;-3.890;2023-03-01T16:51:09;0.70;;;0.70;;
25435;SDS011;13363;52.772;-3.890;2023-03-01T16:53:35;0.60;;;0.50;;
25435;SDS011;13363;52.772;-3.890;2023-03-01T16:56:03;0.63;;;0.60;;
25435;SDS011;13363;52.772;-3.890;2023-03-01T16:58:31;1.60;;;0.70;;
25435;SDS011;13363;52.772;-3.890;2023-03-01T17:01:00;0.73;;;0.73;;
25435;SDS011;13363;52.772;-3.890;2023-03-01T17:03:41;0.67;;;0.67;;
25435;SDS011;13363;52.772;-3.890;2023-03-01T17:06:08;0.83;;;0.77;;
25435;SDS011;13363;52.772;-3.890;2023-03-01T17:08:36;1.30;;;0.70;;
25435;SDS011;13363;52.772;-3.890;2023-03-01T17:11:23;2.53;;;0.83;;
25435;SDS011;13363;52.772;-3.890;2023-03-01T17:13:48;1.53;;;0.90;;
25435;SDS011;13363;52.772;-3.890;2023-03-01T17:16:15;0.60;;;0.60;;